createdAt,value
2017-02-27T00:01:00.755Z,38.26
2017-02-27T00:03:15.731Z,38.35
2017-02-27T00:05:16.883Z,38.91
2017-02-27T00:07:40.331Z,38.81
2017-02-27T00:09:41.462Z,38.43
2017-02-27T00:12:04.944Z,38.91
2017-02-27T00:14:28.413Z,39.58
2017-02-27T00:16:51.772Z,39.67
2017-02-27T00:19:15.145Z,39.95
2017-02-27T00:21:30.104Z,39.58
2017-02-27T00:23:45.073Z,39.94
2017-02-27T00:26:08.437Z,40.03
2017-02-27T00:28:23.410Z,40.12
2017-02-27T00:30:38.411Z,39.65
2017-02-27T00:36:13.227Z,39.94
2017-02-27T00:38:22.858Z,39.84
2017-02-27T00:40:46.248Z,39.84
2017-02-27T00:43:09.608Z,40.12
2017-02-27T00:45:32.973Z,39.65
2017-02-27T00:47:56.337Z,38.62
2017-02-27T00:50:19.703Z,39.29
2017-02-27T00:52:43.074Z,39
2017-02-27T00:55:06.442Z,39.39
2017-02-27T00:56:59.183Z,38.53
2017-02-27T00:59:22.547Z,39.19
2017-02-27T01:01:45.910Z,38.41
2017-02-27T01:04:09.277Z,38.15
2017-02-27T01:06:32.640Z,37.86
2017-02-27T01:08:56.005Z,37.66
2017-02-27T01:11:10.971Z,37.57
2017-02-27T01:15:10.608Z,37.19
2017-02-27T01:17:11.723Z,37.38
2017-02-27T01:19:35.109Z,37.48
2017-02-27T01:21:50.074Z,37.57
2017-02-27T01:24:13.455Z,37.48
2017-02-27T01:26:36.803Z,36.81
2017-02-27T01:28:51.771Z,36.81
2017-02-27T01:31:15.138Z,37
2017-02-27T01:33:38.504Z,36.62
2017-02-27T01:38:03.015Z,36.71
2017-02-27T01:54:15.916Z,39.56
2017-02-27T01:56:39.314Z,39.36
2017-02-27T01:59:02.593Z,39.84
2017-02-27T02:01:17.540Z,38.98
2017-02-27T02:03:24.109Z,39.08
2017-02-27T02:05:47.374Z,39.46
2017-02-27T02:08:10.633Z,38.98
2017-02-27T02:10:34.007Z,38.89
2017-02-27T02:12:57.365Z,39.17
2017-02-27T02:16:48.108Z,39.19
2017-02-27T02:19:03.051Z,39.29
2017-02-27T02:21:04.658Z,39.75
2017-02-27T02:23:28.068Z,39.46
2017-02-27T02:25:51.435Z,39.46
2017-02-27T02:28:06.401Z,39.65
2017-02-27T02:30:29.775Z,39.36
2017-02-27T02:32:53.134Z,39.48
2017-02-27T02:36:52.251Z,39.84
2017-02-27T02:39:01.918Z,40.03
2017-02-27T02:41:25.254Z,39.75
2017-02-27T02:43:48.619Z,40.22
2017-02-27T02:45:41.371Z,39.56
2017-02-27T02:48:04.731Z,40.03
2017-02-27T02:50:28.098Z,39.29
2017-02-27T02:52:51.463Z,39.75
2017-02-27T02:55:06.426Z,40.03
2017-02-27T02:57:29.795Z,40.6
2017-02-27T02:59:53.669Z,40.6
2017-02-27T03:02:17.032Z,40.8
2017-02-27T03:04:40.407Z,40.99
2017-02-27T03:07:03.765Z,40.51
2017-02-27T03:09:27.131Z,40.12
2017-02-27T03:11:28.282Z,40.41
2017-02-27T03:13:51.636Z,39.95
2017-02-27T03:16:15.009Z,39.76
2017-02-27T03:18:29.976Z,39.58
2017-02-27T03:20:31.114Z,39.58
2017-02-27T03:22:32.210Z,39.95
2017-02-27T03:24:55.621Z,39.95
2017-02-27T03:27:18.989Z,40.41
2017-02-27T03:29:42.357Z,40.34
2017-02-27T03:32:05.721Z,39.86
2017-02-27T03:34:29.087Z,39.95
2017-02-27T03:36:52.453Z,39.86
2017-02-27T03:39:07.418Z,40.05
2017-02-27T03:41:30.779Z,39.86
2017-02-27T03:43:54.157Z,39.76
2017-02-27T03:47:39.525Z,39.95
2017-02-27T03:50:02.901Z,39.86
2017-02-27T03:52:17.872Z,40.53
2017-02-27T03:54:41.235Z,40.81
2017-02-27T03:57:04.605Z,40.81
2017-02-27T03:59:27.973Z,40.72
2017-02-27T04:01:51.330Z,40.63
2017-02-27T04:04:01.006Z,41.2
2017-02-27T04:06:15.939Z,41.67
2017-02-27T04:08:39.304Z,41.96
2017-02-27T04:11:02.571Z,41.48
2017-02-27T04:13:03.716Z,41.48
2017-02-27T04:15:18.680Z,41.29
2017-02-27T04:17:42.048Z,41.67
2017-02-27T04:20:05.411Z,41.67
2017-02-27T04:22:20.381Z,41.67
2017-02-27T04:24:43.748Z,41.67
2017-02-27T04:27:07.104Z,41.77
2017-02-27T04:29:30.475Z,42.15
2017-02-27T04:31:53.840Z,42.44
2017-02-27T04:34:08.816Z,42.15
2017-02-27T04:36:32.170Z,41.77
2017-02-27T04:38:55.539Z,41.77
2017-02-27T04:41:10.507Z,42.34
2017-02-27T04:43:33.871Z,42.34
2017-02-27T04:45:57.235Z,42.82
2017-02-27T04:48:21.506Z,43.77
2017-02-27T04:50:35.565Z,44.51
2017-02-27T04:52:58.934Z,45.08
2017-02-27T04:55:22.295Z,44.82
2017-02-27T04:57:45.663Z,44.53
2017-02-27T05:00:09.028Z,45.37
2017-02-27T05:02:10.198Z,45.1
2017-02-27T05:04:33.547Z,44.15
2017-02-27T05:06:56.902Z,45.28
2017-02-27T05:09:03.479Z,45.37
2017-02-27T05:11:26.835Z,45.49
2017-02-27T05:13:27.961Z,45.28
2017-02-27T05:15:51.236Z,46.42
2017-02-27T05:18:14.613Z,46.42
2017-02-27T05:20:29.572Z,45.94
2017-02-27T05:22:52.936Z,46.13
2017-02-27T05:25:16.304Z,45.47
2017-02-27T05:27:40.592Z,45.37
2017-02-27T05:30:03.969Z,45.18
2017-02-27T05:32:27.331Z,44.7
2017-02-27T05:34:50.687Z,44.6
2017-02-27T05:37:05.649Z,43.84
2017-02-27T05:39:29.017Z,43.94
2017-02-27T05:41:52.380Z,43.94
2017-02-27T05:44:15.639Z,43.2
2017-02-27T05:46:39.011Z,43.94
2017-02-27T05:49:02.374Z,44.23
2017-02-27T05:51:25.669Z,44.51
2017-02-27T05:53:49.408Z,45.18
2017-02-27T05:56:04.385Z,46.89
2017-02-27T05:58:27.747Z,46.42
2017-02-27T06:00:51.109Z,46.51
2017-02-27T06:03:14.481Z,45.75
2017-02-27T06:05:37.839Z,47.75
2017-02-27T06:08:01.207Z,48.42
2017-02-27T06:10:16.173Z,47.28
2017-02-27T06:12:31.144Z,46.89
2017-02-27T06:16:30.198Z,46.25
2017-02-27T06:18:45.124Z,46.04
2017-02-27T06:21:08.485Z,46.04
2017-02-27T06:23:31.848Z,45.75
2017-02-27T06:25:33.081Z,45.94
2017-02-27T06:27:56.461Z,45.49
2017-02-27T06:30:19.822Z,45.49
2017-02-27T06:32:43.195Z,44.82
2017-02-27T06:35:06.553Z,43.96
2017-02-27T06:37:21.522Z,43.32
2017-02-27T06:39:44.889Z,40.11
2017-02-27T06:41:54.539Z,35.77
2017-02-27T06:44:18.035Z,33.61
2017-02-27T06:48:17.360Z,32.75
2017-02-27T06:50:40.900Z,33.49
2017-02-27T06:53:04.472Z,34.16
2017-02-27T06:57:04.309Z,34.14
2017-02-27T06:59:27.988Z,36.43
2017-02-27T07:01:51.548Z,36.8
2017-02-27T07:04:15.106Z,36.61
2017-02-27T07:06:38.687Z,37.19
2017-02-27T07:08:31.463Z,37.74
2017-02-27T07:10:54.998Z,36.9
2017-02-27T07:13:18.567Z,35.12
2017-02-27T07:15:42.135Z,25.85
2017-02-27T07:18:05.823Z,18.08
2017-02-27T07:20:29.714Z,14.53
2017-02-27T07:24:21.461Z,10.13
2017-02-27T07:30:41.761Z,6.55
2017-02-27T07:39:25.519Z,10.21
2017-02-27T07:41:47.870Z,7.9
2017-02-27T07:46:00.152Z,5.38
2017-02-27T07:48:16.710Z,3.44
2017-02-27T07:50:41.840Z,3.63
2017-02-27T07:53:07.008Z,5.08
2017-02-27T07:56:59.548Z,5.66
2017-02-27T07:59:24.695Z,7.89
2017-02-27T08:01:49.662Z,11.35
2017-02-27T08:04:06.043Z,8.75
2017-02-27T08:06:30.917Z,6.73
2017-02-27T08:10:23.739Z,4.02
2017-02-27T08:12:33.927Z,2.55
2017-02-27T08:14:36.141Z,1.48
2017-02-27T08:16:53.042Z,2.16
2017-02-27T08:19:18.498Z,1.67
2017-02-27T08:21:28.847Z,1.67
2017-02-27T08:23:45.950Z,3.53
2017-02-27T08:25:47.655Z,2.75
2017-02-27T08:28:13.348Z,0.98
2017-02-27T08:30:23.722Z,2.45
2017-02-27T08:32:49.508Z,1.08
2017-02-27T08:35:15.283Z,0
2017-02-27T08:37:41.071Z,0
2017-02-27T08:40:06.921Z,0
2017-02-27T08:42:24.230Z,0
2017-02-27T08:44:50.067Z,0
2017-02-27T08:47:00.513Z,0
2017-02-27T08:49:26.383Z,0.39
2017-02-27T08:51:52.190Z,3.91
2017-02-27T08:54:17.962Z,9.89
2017-02-27T08:56:43.641Z,15.15
2017-02-27T08:59:09.196Z,16.21
2017-02-27T09:01:19.997Z,16.3
2017-02-27T09:03:45.332Z,18.3
2017-02-27T09:06:10.396Z,17.45
2017-02-27T09:08:35.295Z,18.12
2017-02-27T09:10:51.488Z,19.83
2017-02-27T09:13:16.055Z,19.73
2017-02-27T09:15:40.503Z,17.55
2017-02-27T09:17:56.377Z,21.53
2017-02-27T09:20:12.225Z,23.06
2017-02-27T09:22:36.453Z,22.96
2017-02-27T09:25:00.634Z,23.16
2017-02-27T09:27:24.756Z,22.88
2017-02-27T09:29:48.851Z,22.01
2017-02-27T09:32:12.946Z,23.55
2017-02-27T09:34:36.945Z,23.25
2017-02-27T09:37:00.985Z,22.88
2017-02-27T09:39:24.982Z,23.46
2017-02-27T09:41:48.989Z,23.73
2017-02-27T09:43:58.861Z,22.13
2017-02-27T09:46:22.894Z,23.55
2017-02-27T09:48:46.871Z,24.88
2017-02-27T09:51:10.850Z,23.74
2017-02-27T09:56:46.400Z,26.1
2017-02-27T09:58:56.223Z,25.93
2017-02-27T10:01:20.228Z,25.82
2017-02-27T10:03:35.783Z,27.34
2017-02-27T10:05:59.711Z,26.68
2017-02-27T10:08:23.633Z,27.34
2017-02-27T10:10:47.468Z,26.3
2017-02-27T10:12:57.292Z,26.3
2017-02-27T10:15:12.780Z,27.72
2017-02-27T10:17:36.611Z,27.16
2017-02-27T10:20:00.496Z,26.78
2017-02-27T10:22:24.386Z,27.36
2017-02-27T10:26:24.084Z,27.15
2017-02-27T10:28:48.000Z,26.97
2017-02-27T10:31:11.884Z,27.93
2017-02-27T10:33:21.694Z,27.82
2017-02-27T10:35:45.585Z,28.2
2017-02-27T10:38:09.441Z,28.68
2017-02-27T10:40:33.246Z,28.49
2017-02-27T10:42:48.670Z,28.11
2017-02-27T10:45:04.084Z,28.22
2017-02-27T10:47:19.509Z,27.16
2017-02-27T10:49:43.362Z,28.22
2017-02-27T10:52:07.203Z,28.39
2017-02-27T10:54:17.018Z,28.22
2017-02-27T10:56:40.901Z,29.06
2017-02-27T10:59:04.771Z,28.86
2017-02-27T11:01:28.587Z,28.88
2017-02-27T11:05:19.820Z,29.05
2017-02-27T11:07:43.670Z,29.72
2017-02-27T11:09:53.425Z,30.57
2017-02-27T11:12:08.816Z,30.96
2017-02-27T11:14:32.584Z,30.57
2017-02-27T11:16:56.347Z,31.32
2017-02-27T11:19:20.106Z,31.92
2017-02-27T11:21:43.841Z,30.78
2017-02-27T11:24:07.610Z,31.24
2017-02-27T11:26:22.990Z,31.24
2017-02-27T11:28:46.863Z,30.78
2017-02-27T11:32:46.426Z,28.68
2017-02-27T11:35:10.249Z,28.6
2017-02-27T11:37:34.062Z,29.55
2017-02-27T11:39:49.386Z,29.83
2017-02-27T11:42:13.155Z,28.79
2017-02-27T11:44:36.931Z,28.41
2017-02-27T11:46:38.295Z,28.31
2017-02-27T11:52:13.715Z,29.56
2017-02-27T11:54:29.145Z,28.33
2017-02-27T11:56:52.968Z,29.06
2017-02-27T11:59:16.811Z,28.97
2017-02-27T12:01:26.603Z,28.78
2017-02-27T12:03:42.013Z,29.44
2017-02-27T12:06:05.790Z,28.68
2017-02-27T12:08:29.560Z,28.2
2017-02-27T12:10:53.328Z,28.78
2017-02-27T12:13:17.152Z,30.01
2017-02-27T12:15:32.520Z,29.82
2017-02-27T12:17:33.792Z,28.97
2017-02-27T12:19:49.160Z,29.26
2017-02-27T12:22:12.949Z,29.35
2017-02-27T12:24:36.673Z,28.78
2017-02-27T12:27:00.483Z,29.06
2017-02-27T12:29:24.230Z,28.31
2017-02-27T12:31:39.601Z,28.11
2017-02-27T12:34:03.393Z,29.06
2017-02-27T12:36:04.682Z,28.3
2017-02-27T12:38:28.505Z,27.55
2017-02-27T12:40:52.257Z,27.63
2017-02-27T12:43:02.045Z,28.78
2017-02-27T12:45:25.855Z,28.3
2017-02-27T12:47:49.599Z,28.39
2017-02-27T12:51:49.175Z,28.3
2017-02-27T12:54:12.925Z,28.22
2017-02-27T12:56:36.704Z,27.36
2017-02-27T12:58:43.655Z,26.5
2017-02-27T13:01:07.449Z,27.36
2017-02-27T13:03:31.255Z,27.26
2017-02-27T13:05:55.046Z,26.31
2017-02-27T13:08:18.870Z,26.78
2017-02-27T13:10:42.681Z,27.06
2017-02-27T13:13:06.502Z,27.45
2017-02-27T13:15:30.331Z,28.12
2017-02-27T13:17:54.150Z,28.78
2017-02-27T13:20:17.962Z,28.11
2017-02-27T13:22:41.758Z,28.68
2017-02-27T13:25:05.572Z,29.26
2017-02-27T13:27:29.368Z,30.12
2017-02-27T13:29:53.120Z,30.68
2017-02-27T13:32:16.923Z,30.6
2017-02-27T13:34:40.720Z,29.47
2017-02-27T13:37:04.533Z,28.99
2017-02-27T13:39:28.312Z,29.85
2017-02-27T13:41:52.097Z,30.12
2017-02-27T13:44:15.874Z,30.04
2017-02-27T13:46:39.674Z,30.33
2017-02-27T13:49:03.463Z,30.14
2017-02-27T13:51:27.262Z,29.75
2017-02-27T13:53:42.619Z,29.64
2017-02-27T13:55:57.991Z,28.99
2017-02-27T13:58:21.796Z,28.31
2017-02-27T14:00:45.603Z,27.34
2017-02-27T14:02:46.862Z,28.11
2017-02-27T14:05:10.694Z,27.36
2017-02-27T14:07:20.479Z,28.01
2017-02-27T14:09:44.291Z,28.41
2017-02-27T14:11:59.661Z,28.03
2017-02-27T14:14:09.467Z,27.36
2017-02-27T14:16:33.246Z,27.27
2017-02-27T14:18:57.056Z,28.39
2017-02-27T14:21:20.861Z,28.3
2017-02-27T14:23:44.676Z,28.49
2017-02-27T14:26:08.494Z,28.88
2017-02-27T14:28:32.294Z,28.88
2017-02-27T14:30:56.106Z,28.78
2017-02-27T14:33:19.924Z,29.16
2017-02-27T14:35:43.675Z,29.83
2017-02-27T14:37:50.611Z,29.83
2017-02-27T14:40:14.347Z,30.12
2017-02-27T14:42:38.121Z,30.12
2017-02-27T14:45:01.907Z,29.93
2017-02-27T14:47:25.689Z,30.12
2017-02-27T14:49:35.982Z,29.74
2017-02-27T14:51:59.741Z,29.06
2017-02-27T14:54:00.980Z,29.06
2017-02-27T14:56:24.787Z,28.68
2017-02-27T14:58:48.547Z,28.2
2017-02-27T15:01:12.270Z,28.11
2017-02-27T15:03:19.195Z,28.2
2017-02-27T15:05:20.454Z,28.11
2017-02-27T15:09:20.006Z,28.3
2017-02-27T15:11:43.820Z,28.11
2017-02-27T15:14:07.582Z,28
2017-02-27T15:16:08.878Z,28.19
2017-02-27T15:20:08.418Z,28.3
2017-02-27T15:22:32.217Z,28.28
2017-02-27T15:24:47.582Z,28.2
2017-02-27T15:26:57.377Z,28.2
2017-02-27T15:29:21.187Z,27.82
2017-02-27T15:31:30.953Z,28.2
2017-02-27T15:33:54.758Z,28.2
2017-02-27T15:36:18.512Z,27.92
2017-02-27T15:40:18.048Z,28.67
2017-02-27T15:42:41.794Z,28.57
2017-02-27T15:45:05.534Z,28.77
2017-02-27T15:47:29.290Z,28.96
2017-02-27T15:49:31.050Z,29.23
2017-02-27T15:51:54.777Z,29.61
2017-02-27T15:53:55.991Z,29.33
2017-02-27T15:56:19.723Z,29.52
2017-02-27T15:58:20.991Z,29.61
2017-02-27T16:00:44.754Z,29.63
2017-02-27T16:02:54.521Z,29.63
2017-02-27T16:05:18.267Z,29.82
2017-02-27T16:07:41.999Z,30.68
2017-02-27T16:10:05.654Z,30.86
2017-02-27T16:12:29.382Z,30.57
2017-02-27T16:14:39.145Z,29.61
2017-02-27T16:17:02.897Z,29.33
2017-02-27T16:19:26.604Z,29.04
2017-02-27T16:21:50.303Z,28.75
2017-02-27T16:24:13.985Z,28.56
2017-02-27T16:26:37.664Z,29.02
2017-02-27T16:29:01.326Z,28.85
2017-02-27T16:31:25.032Z,28.74
2017-02-27T16:33:40.301Z,28.92
2017-02-27T16:36:03.987Z,29.23
2017-02-27T16:38:13.762Z,29.13
2017-02-27T16:41:50.736Z,29.6
2017-02-27T16:45:50.777Z,29.52
2017-02-27T16:48:15.437Z,29.6
2017-02-27T16:50:39.115Z,29.69
2017-02-27T16:53:03.798Z,29.88
2017-02-27T16:55:27.531Z,30.27
2017-02-27T16:57:42.789Z,30.36
2017-02-27T17:00:06.476Z,31.13
2017-02-27T17:02:30.243Z,30.94
2017-02-27T17:04:53.916Z,31.04
2017-02-27T17:07:24.153Z,30.55
2017-02-27T17:09:39.421Z,30.84
2017-02-27T17:11:49.154Z,30.94
2017-02-27T17:14:12.866Z,30.94
2017-02-27T17:16:28.112Z,31.32
2017-02-27T17:18:51.782Z,31.32
2017-02-27T17:21:16.498Z,31.04
2017-02-27T17:23:26.268Z,31.04
2017-02-27T17:25:51.022Z,30.75
2017-02-27T17:28:06.250Z,30.75
2017-02-27T17:30:16.003Z,30.65
2017-02-27T17:32:39.718Z,30.84
2017-02-27T17:35:04.418Z,30.94
2017-02-27T17:36:57.718Z,31.04
2017-02-27T17:39:21.454Z,30.94
2017-02-27T17:41:45.121Z,31.32
2017-02-27T17:43:46.345Z,31.42
2017-02-27T17:46:10.035Z,31.42
2017-02-27T17:48:25.313Z,32.17
2017-02-27T17:50:49.904Z,31.61
2017-02-27T17:53:14.601Z,32.07
2017-02-27T17:55:16.331Z,32.26
2017-02-27T17:57:40.030Z,32.36
2017-02-27T17:59:41.720Z,32.36
2017-02-27T18:02:05.467Z,32.65
2017-02-27T18:04:29.135Z,32.46
2017-02-27T18:08:29.070Z,33.41
2017-02-27T18:10:52.737Z,33.43
2017-02-27T18:13:16.411Z,32.47
2017-02-27T18:15:31.687Z,32.67
2017-02-27T18:17:55.364Z,33.7
2017-02-27T18:20:19.024Z,33.61
2017-02-27T18:22:42.696Z,33.41
2017-02-27T18:25:06.371Z,33.7
2017-02-27T18:27:21.653Z,33.8
2017-02-27T18:31:12.734Z,33.72
2017-02-27T18:33:38.794Z,33.91
2017-02-27T18:36:02.476Z,33.7
2017-02-27T18:38:26.151Z,33.51
2017-02-27T18:40:49.825Z,33.53
2017-02-27T18:43:13.501Z,33.62
2017-02-27T18:45:37.267Z,33.14
2017-02-27T18:47:59.602Z,32.47
2017-02-27T18:50:23.291Z,31.42
2017-02-27T18:52:47.050Z,31.8
2017-02-27T18:56:46.618Z,31.43
2017-02-27T18:59:10.784Z,31.24
2017-02-27T19:01:34.530Z,31.24
2017-02-27T19:03:58.309Z,30.96
2017-02-27T19:06:08.145Z,30.86
2017-02-27T19:08:31.941Z,30.67
2017-02-27T19:10:38.816Z,30.47
2017-02-27T19:12:54.089Z,30.19
2017-02-27T19:14:55.385Z,30.29
2017-02-27T19:17:19.111Z,30.47
2017-02-27T19:19:42.882Z,30.11
2017-02-27T19:22:06.556Z,30.09
2017-02-27T19:26:06.976Z,29.72
2017-02-27T19:28:30.788Z,29.82
2017-02-27T19:30:54.555Z,29.53
2017-02-27T19:34:54.120Z,29.05
2017-02-27T19:37:17.961Z,29.44
2017-02-27T19:39:33.329Z,29.34
2017-02-27T19:41:34.587Z,29.15
2017-02-27T19:43:58.341Z,29.34
2017-02-27T19:46:22.122Z,29.34
2017-02-27T19:48:45.906Z,29.8
2017-02-27T19:52:45.477Z,29.72
2017-02-27T19:55:00.803Z,30.11
2017-02-27T19:57:24.579Z,30.09
2017-02-27T19:59:48.658Z,30
2017-02-27T20:01:58.429Z,30.11
2017-02-27T20:07:33.826Z,30.29
2017-02-27T20:09:57.753Z,29.8
2017-02-27T20:12:21.551Z,30.11
2017-02-27T20:14:45.304Z,30.2
2017-02-27T20:17:09.284Z,29.71
2017-02-27T20:19:32.953Z,29.91
2017-02-27T20:21:48.336Z,29.72
2017-02-27T20:24:12.886Z,29.72
2017-02-27T20:34:33.202Z,29.72
2017-02-27T20:36:57.076Z,30.58
2017-02-27T20:38:59.070Z,39.25
2017-02-27T20:41:22.900Z,49.52
2017-02-27T20:43:46.683Z,53.7
2017-02-27T20:45:47.930Z,57.87
2017-02-27T20:48:12.750Z,59.47
2017-02-27T20:50:36.400Z,61.44
2017-02-27T20:53:00.054Z,62.56
2017-02-27T20:55:23.619Z,63.7
2017-02-27T20:57:24.818Z,64.56
2017-02-27T20:59:48.347Z,65.39
2017-02-27T21:01:41.082Z,66.91
2017-02-27T21:03:56.147Z,67.77
2017-02-27T21:06:11.735Z,69.54
2017-02-27T21:08:12.922Z,70.31
2017-02-27T21:10:36.353Z,71.36
2017-02-27T21:12:59.814Z,73.07
2017-02-27T21:15:23.268Z,74.37
2017-02-27T21:17:32.919Z,74.65
2017-02-27T21:19:56.280Z,75.32
2017-02-27T21:22:19.642Z,75.23
2017-02-27T21:24:42.905Z,75.51
2017-02-27T21:26:57.879Z,74.27
2017-02-27T21:29:21.225Z,74.4
2017-02-27T21:31:44.496Z,74.46
2017-02-27T21:34:07.871Z,73.17
2017-02-27T21:36:08.973Z,72.97
2017-02-27T21:38:23.978Z,72.56
2017-02-27T21:40:47.343Z,73.32
2017-02-27T21:43:02.310Z,73.55
2017-02-27T21:45:03.457Z,73.32
2017-02-27T21:47:26.824Z,72.65
2017-02-27T21:49:50.195Z,73.13
2017-02-27T21:51:59.823Z,72.69
2017-02-27T21:54:23.189Z,72.5
2017-02-27T21:56:46.552Z,73.83
2017-02-27T21:59:09.918Z,74.21
2017-02-27T22:01:33.287Z,73.45
2017-02-27T22:03:56.665Z,73.36
2017-02-27T22:06:20.011Z,73.8
2017-02-27T22:08:43.377Z,73.41
2017-02-27T22:11:06.749Z,72.21
2017-02-27T22:13:30.040Z,72.17
2017-02-27T22:15:44.976Z,71.26
2017-02-27T22:18:08.350Z,70.5
2017-02-27T22:20:17.988Z,70.31
2017-02-27T22:22:32.955Z,69.07
2017-02-27T22:24:56.319Z,69.35
2017-02-27T22:27:11.289Z,68.63
2017-02-27T22:29:34.653Z,68.15
2017-02-27T22:31:58.018Z,68.15
2017-02-27T22:34:22.408Z,68.34
2017-02-27T22:36:37.373Z,69.45
2017-02-27T22:38:52.354Z,69.39
2017-02-27T22:41:15.709Z,69.96
2017-02-27T22:43:39.073Z,71.11
2017-02-27T22:46:02.443Z,71.93
2017-02-27T22:48:17.417Z,72.06
2017-02-27T22:50:40.773Z,72.25
2017-02-27T22:53:04.135Z,72.34
2017-02-27T22:55:27.501Z,72.69
2017-02-27T22:57:50.862Z,73.55
2017-02-27T23:00:14.113Z,73.21
2017-02-27T23:02:37.491Z,73.01
2017-02-27T23:05:00.866Z,73.49
2017-02-27T23:07:24.234Z,73.83
2017-02-27T23:09:47.543Z,73.96
2017-02-27T23:13:24.487Z,73.45
2017-02-27T23:15:47.842Z,73.49
2017-02-27T23:18:02.810Z,74.16
2017-02-27T23:20:26.187Z,74.16
2017-02-27T23:22:49.543Z,73.3
2017-02-27T23:25:12.913Z,73.49
2017-02-27T23:27:36.276Z,73.21
2017-02-27T23:29:59.531Z,73.93
2017-02-27T23:32:14.508Z,74.4
2017-02-27T23:34:37.808Z,73.39
2017-02-27T23:37:01.133Z,73.39
2017-02-27T23:39:24.497Z,73.68
2017-02-27T23:41:39.467Z,74.5
2017-02-27T23:43:54.433Z,75.07
2017-02-27T23:46:09.414Z,74.98
2017-02-27T23:48:24.372Z,74.88
2017-02-27T23:50:47.733Z,76.12
2017-02-27T23:52:57.413Z,75.93
2017-02-27T23:55:20.744Z,76.12
2017-02-27T23:59:19.900Z,78.37
